createdAt,value
2018-12-04T00:00:53.980Z,1.10
2018-12-04T00:03:22.750Z,1.97
2018-12-04T00:05:51.535Z,1.10
2018-12-04T00:08:20.351Z,1.07
2018-12-04T00:10:49.176Z,1.17
2018-12-04T00:13:18.858Z,0.50
2018-12-04T00:15:47.707Z,0.60
2018-12-04T00:18:16.536Z,0.50
2018-12-04T00:20:45.347Z,0.53
2018-12-04T00:23:14.165Z,0.50
2018-12-04T00:25:42.969Z,0.63
2018-12-04T00:28:11.772Z,1.17
2018-12-04T00:30:40.711Z,0.63
2018-12-04T00:33:09.499Z,0.80
2018-12-04T00:35:38.251Z,0.83
2018-12-04T00:38:07.023Z,1.30
2018-12-04T00:40:35.828Z,0.70
2018-12-04T00:43:04.536Z,0.83
2018-12-04T00:45:33.286Z,1.10
2018-12-04T00:48:02.015Z,0.70
2018-12-04T00:50:30.831Z,0.67
2018-12-04T00:52:59.654Z,0.60
2018-12-04T00:55:39.745Z,0.60
2018-12-04T00:58:08.666Z,0.80
2018-12-04T01:00:37.449Z,0.80
2018-12-04T01:03:06.320Z,0.90
2018-12-04T01:05:35.054Z,0.90
2018-12-04T01:08:03.837Z,1.27
2018-12-04T01:10:32.598Z,0.93
2018-12-04T01:13:01.923Z,1.03
2018-12-04T01:15:31.454Z,0.83
2018-12-04T01:18:00.719Z,0.43
2018-12-04T01:20:30.306Z,0.90
2018-12-04T01:22:59.636Z,0.80
2018-12-04T01:25:29.047Z,1.00
2018-12-04T01:27:58.299Z,1.10
2018-12-04T01:30:27.665Z,0.70
2018-12-04T01:32:56.984Z,0.97
2018-12-04T01:35:26.171Z,0.60
2018-12-04T01:37:55.408Z,0.53
2018-12-04T01:40:24.514Z,0.70
2018-12-04T01:42:53.767Z,0.73
2018-12-04T01:45:22.984Z,0.67
2018-12-04T01:47:52.172Z,0.77
2018-12-04T01:50:21.275Z,0.70
2018-12-04T01:52:50.487Z,1.03
2018-12-04T01:55:19.628Z,0.80
2018-12-04T01:57:48.847Z,0.80
2018-12-04T02:00:17.676Z,0.70
2018-12-04T02:02:46.530Z,0.80
2018-12-04T02:05:15.447Z,0.83
2018-12-04T02:07:44.176Z,0.60
2018-12-04T02:10:12.866Z,1.00
2018-12-04T02:12:41.667Z,1.53
2018-12-04T02:15:10.464Z,1.13
2018-12-04T02:17:39.209Z,0.90
2018-12-04T02:20:08.259Z,0.77
2018-12-04T02:22:37.354Z,0.77
2018-12-04T02:25:06.900Z,0.83
2018-12-04T02:27:35.750Z,0.93
2018-12-04T02:30:05.178Z,0.83
2018-12-04T02:32:33.984Z,1.10
2018-12-04T02:35:02.737Z,1.00
2018-12-04T02:37:31.509Z,1.07
2018-12-04T02:40:00.174Z,0.70
2018-12-04T02:42:28.852Z,1.33
2018-12-04T02:44:57.604Z,1.30
2018-12-04T02:47:26.279Z,0.90
2018-12-04T02:49:55.113Z,0.73
2018-12-04T02:52:23.813Z,2.17
2018-12-04T02:54:52.554Z,1.20
2018-12-04T02:57:21.292Z,1.50
2018-12-04T02:59:50.108Z,0.90
2018-12-04T03:02:18.939Z,1.13
2018-12-04T03:04:47.918Z,1.10
2018-12-04T03:07:17.000Z,1.00
2018-12-04T03:09:45.776Z,0.80
2018-12-04T03:12:14.580Z,1.07
2018-12-04T03:14:43.281Z,1.30
2018-12-04T03:17:12.109Z,1.07
2018-12-04T03:19:40.942Z,1.17
2018-12-04T03:22:09.669Z,1.60
2018-12-04T03:24:38.501Z,1.30
2018-12-04T03:27:07.271Z,1.00
2018-12-04T03:29:36.098Z,0.80
2018-12-04T03:32:05.125Z,0.80
2018-12-04T03:34:34.104Z,1.27
2018-12-04T03:37:02.881Z,1.10
2018-12-04T03:39:31.690Z,0.70
2018-12-04T03:42:00.473Z,0.80
2018-12-04T03:44:29.224Z,1.00
2018-12-04T03:46:58.019Z,1.07
2018-12-04T03:49:26.820Z,1.37
2018-12-04T03:51:55.590Z,1.27
2018-12-04T03:54:25.315Z,1.00
2018-12-04T03:56:54.414Z,0.87
2018-12-04T03:59:23.237Z,1.20
2018-12-04T04:01:51.934Z,0.77
2018-12-04T04:04:20.740Z,0.83
2018-12-04T04:06:49.668Z,1.10
2018-12-04T04:09:18.511Z,1.20
2018-12-04T04:11:47.654Z,1.43
2018-12-04T04:14:16.702Z,1.13
2018-12-04T04:16:45.847Z,1.30
2018-12-04T04:19:15.109Z,1.40
2018-12-04T04:21:43.936Z,1.93
2018-12-04T04:24:12.723Z,1.30
2018-12-04T04:26:41.506Z,1.83
2018-12-04T04:29:10.275Z,1.60
2018-12-04T04:31:39.045Z,1.20
2018-12-04T04:34:07.811Z,2.13
2018-12-04T04:36:36.655Z,2.13
2018-12-04T04:39:08.385Z,1.47
2018-12-04T04:41:37.080Z,1.50
2018-12-04T04:44:05.872Z,1.40
2018-12-04T04:46:34.775Z,1.83
2018-12-04T04:49:03.665Z,1.30
2018-12-04T04:51:32.476Z,1.67
2018-12-04T04:54:01.374Z,1.57
2018-12-04T04:56:30.478Z,2.00
2018-12-04T04:58:59.258Z,1.50
2018-12-04T05:01:28.079Z,1.73
2018-12-04T05:03:56.854Z,1.50
2018-12-04T05:06:28.513Z,1.40
2018-12-04T05:08:58.404Z,2.23
2018-12-04T05:11:27.295Z,1.50
2018-12-04T05:13:56.141Z,2.77
2018-12-04T05:16:25.011Z,2.83
2018-12-04T05:18:53.819Z,1.93
2018-12-04T05:21:22.623Z,1.90
2018-12-04T05:23:51.451Z,2.00
2018-12-04T05:26:20.361Z,2.00
2018-12-04T05:28:49.194Z,2.20
2018-12-04T05:31:18.034Z,1.90
2018-12-04T05:33:46.876Z,1.57
2018-12-04T05:36:15.722Z,1.10
2018-12-04T05:38:44.518Z,1.10
2018-12-04T05:41:13.381Z,0.87
2018-12-04T05:43:42.198Z,1.50
2018-12-04T05:46:10.978Z,1.70
2018-12-04T05:48:39.814Z,0.90
2018-12-04T05:51:08.615Z,0.50
2018-12-04T05:53:37.656Z,0.93
2018-12-04T05:56:09.457Z,0.80
2018-12-04T05:58:38.303Z,0.50
2018-12-04T06:01:07.144Z,0.50
2018-12-04T06:03:36.028Z,0.80
2018-12-04T06:06:04.998Z,1.53
2018-12-04T06:08:33.864Z,2.20
2018-12-04T06:11:02.772Z,0.60
2018-12-04T06:13:31.807Z,0.60
2018-12-04T06:16:01.212Z,0.40
2018-12-04T06:18:30.111Z,0.90
2018-12-04T06:20:59.009Z,0.80
2018-12-04T06:23:27.744Z,1.13
2018-12-04T06:25:56.544Z,0.70
2018-12-04T06:28:25.313Z,0.67
2018-12-04T06:30:54.687Z,1.27
2018-12-04T06:33:23.912Z,1.10
2018-12-04T06:35:52.925Z,1.07
2018-12-04T06:38:22.055Z,1.10
2018-12-04T06:40:50.826Z,1.00
2018-12-04T06:43:19.738Z,0.97
2018-12-04T06:45:48.563Z,1.10
2018-12-04T06:48:17.337Z,0.93
2018-12-04T06:50:46.204Z,1.20
2018-12-04T06:53:15.062Z,1.57
2018-12-04T06:55:43.850Z,1.97
2018-12-04T06:58:12.710Z,1.10
2018-12-04T07:00:41.515Z,1.23
2018-12-04T07:03:10.526Z,4.27
2018-12-04T07:05:40.213Z,1.57
2018-12-04T07:08:09.332Z,1.37
2018-12-04T07:10:38.289Z,0.90
2018-12-04T07:13:07.201Z,1.37
2018-12-04T07:15:36.051Z,1.57
2018-12-04T07:18:04.955Z,1.40
2018-12-04T07:20:33.909Z,1.43
2018-12-04T07:23:02.882Z,1.20
2018-12-04T07:25:31.751Z,1.50
2018-12-04T07:28:00.692Z,1.20
2018-12-04T07:30:29.583Z,1.73
2018-12-04T07:32:58.553Z,1.50
2018-12-04T07:35:27.540Z,1.63
2018-12-04T07:37:56.508Z,1.60
2018-12-04T07:40:25.261Z,1.43
2018-12-04T07:42:54.191Z,1.50
2018-12-04T07:45:22.987Z,1.60
2018-12-04T07:47:51.773Z,1.70
2018-12-04T07:50:20.653Z,2.30
2018-12-04T07:52:49.509Z,2.00
2018-12-04T07:55:18.360Z,1.87
2018-12-04T07:57:47.219Z,2.00
2018-12-04T08:00:16.101Z,2.23
2018-12-04T08:02:45.003Z,3.53
2018-12-04T08:05:13.971Z,2.60
2018-12-04T08:07:42.971Z,2.70
2018-12-04T08:10:11.890Z,2.90
2018-12-04T08:12:40.935Z,1.43
2018-12-04T08:15:09.825Z,2.60
2018-12-04T08:17:38.740Z,2.50
2018-12-04T08:20:08.664Z,1.80
2018-12-04T08:22:37.498Z,2.37
2018-12-04T08:25:06.782Z,2.20
2018-12-04T08:27:37.454Z,1.97
2018-12-04T08:30:08.610Z,2.80
2018-12-04T08:32:37.471Z,2.73
2018-12-04T08:35:08.682Z,3.50
2018-12-04T08:37:37.571Z,3.10
2018-12-04T08:40:07.772Z,2.37
2018-12-04T08:42:36.658Z,2.00
2018-12-04T08:45:07.249Z,2.00
2018-12-04T08:47:36.175Z,1.83
2018-12-04T08:50:07.178Z,1.90
2018-12-04T08:52:36.458Z,2.07
2018-12-04T08:55:06.160Z,1.60
2018-12-04T08:57:36.369Z,1.83
2018-12-04T09:00:06.263Z,1.67
2018-12-04T09:02:35.571Z,1.73
2018-12-04T09:05:05.562Z,1.87
2018-12-04T09:07:35.248Z,2.10
2018-12-04T09:10:05.696Z,2.00
2018-12-04T09:12:35.368Z,1.53
2018-12-04T09:15:05.154Z,1.90
2018-12-04T09:17:34.241Z,1.70
2018-12-04T09:20:03.490Z,1.50
2018-12-04T09:22:32.904Z,1.60
2018-12-04T09:25:02.245Z,2.10
2018-12-04T09:27:31.907Z,1.60
2018-12-04T09:30:01.148Z,1.83
2018-12-04T09:32:30.127Z,2.00
2018-12-04T09:34:59.085Z,1.70
2018-12-04T09:37:27.870Z,2.20
2018-12-04T09:39:56.820Z,2.00
2018-12-04T09:42:26.160Z,1.47
2018-12-04T09:44:55.407Z,1.90
2018-12-04T09:47:24.846Z,1.70
2018-12-04T09:49:53.962Z,2.23
2018-12-04T09:52:23.142Z,2.00
2018-12-04T09:54:51.989Z,2.00
2018-12-04T09:57:20.784Z,2.50
2018-12-04T09:59:49.587Z,2.30
2018-12-04T10:02:18.531Z,2.93
2018-12-04T10:04:47.447Z,2.00
2018-12-04T10:07:16.243Z,1.70
2018-12-04T10:09:45.158Z,2.50
2018-12-04T10:12:14.113Z,1.80
2018-12-04T10:14:42.987Z,1.93
2018-12-04T10:17:11.974Z,1.90
2018-12-04T10:19:40.933Z,1.77
2018-12-04T10:22:09.892Z,1.50
2018-12-04T10:24:38.845Z,2.40
2018-12-04T10:27:07.696Z,1.90
2018-12-04T10:29:36.608Z,1.93
2018-12-04T10:32:05.463Z,1.40
2018-12-04T10:34:34.346Z,1.63
2018-12-04T10:37:03.173Z,2.17
2018-12-04T10:39:32.001Z,1.77
2018-12-04T10:42:00.848Z,1.97
2018-12-04T10:44:29.718Z,1.90
2018-12-04T10:46:58.641Z,2.20
2018-12-04T10:49:27.510Z,2.40
2018-12-04T10:51:56.437Z,2.30
2018-12-04T10:54:25.314Z,2.80
2018-12-04T10:56:54.259Z,3.37
2018-12-04T10:59:23.159Z,1.90
2018-12-04T11:01:57.377Z,2.03
2018-12-04T11:04:26.199Z,2.47
2018-12-04T11:06:55.083Z,2.50
2018-12-04T11:09:24.051Z,2.20
2018-12-04T11:11:52.941Z,2.10
2018-12-04T11:14:21.862Z,2.53
2018-12-04T11:16:50.821Z,1.90
2018-12-04T11:19:19.739Z,2.70
2018-12-04T11:21:48.708Z,2.33
2018-12-04T11:24:17.679Z,2.27
2018-12-04T11:26:46.544Z,2.53
2018-12-04T11:29:15.443Z,2.00
2018-12-04T11:31:44.440Z,2.57
2018-12-04T11:34:13.397Z,2.43
2018-12-04T11:36:42.684Z,2.10
2018-12-04T11:39:11.635Z,2.63
2018-12-04T11:41:40.557Z,2.60
2018-12-04T11:44:09.458Z,2.03
2018-12-04T11:46:38.239Z,2.20
2018-12-04T11:49:07.074Z,2.20
2018-12-04T11:51:35.950Z,2.43
2018-12-04T11:54:05.246Z,2.40
2018-12-04T11:56:34.339Z,2.27
2018-12-04T11:59:03.623Z,2.63
2018-12-04T12:01:32.902Z,2.47
2018-12-04T12:04:02.051Z,2.50
2018-12-04T12:06:31.133Z,2.33
2018-12-04T12:09:00.444Z,2.80
2018-12-04T12:11:29.511Z,2.43
2018-12-04T12:13:58.498Z,2.27
2018-12-04T12:16:27.468Z,2.73
2018-12-04T12:18:56.387Z,2.80
2018-12-04T12:21:25.210Z,2.80
2018-12-04T12:23:54.000Z,3.07
2018-12-04T12:26:22.913Z,3.23
2018-12-04T12:28:51.856Z,3.87
2018-12-04T12:31:20.852Z,3.17
2018-12-04T12:33:49.676Z,3.07
2018-12-04T12:36:18.514Z,3.10
2018-12-04T12:38:47.461Z,3.73
2018-12-04T12:41:16.344Z,3.33
2018-12-04T12:43:45.271Z,2.83
2018-12-04T12:46:14.262Z,4.10
2018-12-04T12:48:43.113Z,4.37
2018-12-04T12:51:12.135Z,5.23
2018-12-04T12:53:41.759Z,4.10
2018-12-04T12:56:11.224Z,4.47
2018-12-04T12:58:40.644Z,6.33
2018-12-04T13:01:10.414Z,4.93
2018-12-04T13:03:39.795Z,4.80
2018-12-04T13:06:09.124Z,4.43
2018-12-04T13:08:38.484Z,5.10
2018-12-04T13:11:07.853Z,3.63
2018-12-04T13:13:37.104Z,6.20
2018-12-04T13:16:06.563Z,5.97
2018-12-04T13:18:35.980Z,6.13
2018-12-04T13:21:05.327Z,3.67
2018-12-04T13:23:35.237Z,3.87
2018-12-04T13:26:04.887Z,4.40
2018-12-04T13:28:34.663Z,4.80
2018-12-04T13:31:04.307Z,4.60
2018-12-04T13:33:37.800Z,3.87
2018-12-04T13:36:07.129Z,4.97
2018-12-04T13:38:36.619Z,5.73
2018-12-04T13:41:06.009Z,4.77
2018-12-04T13:43:34.979Z,4.83
2018-12-04T13:46:04.171Z,4.97
2018-12-04T13:48:33.550Z,5.60
2018-12-04T13:51:03.301Z,6.17
2018-12-04T13:53:32.596Z,5.00
2018-12-04T13:56:02.316Z,5.70
2018-12-04T13:58:31.723Z,5.63
2018-12-04T14:01:01.115Z,6.00
2018-12-04T14:03:30.625Z,4.70
2018-12-04T14:05:59.872Z,5.20
2018-12-04T14:08:29.620Z,3.87
2018-12-04T14:10:59.742Z,3.00
2018-12-04T14:13:29.190Z,3.00
2018-12-04T14:15:58.480Z,3.60
2018-12-04T14:18:27.961Z,3.50
2018-12-04T14:20:57.535Z,3.10
2018-12-04T14:23:27.165Z,3.07
2018-12-04T14:25:56.877Z,3.17
2018-12-04T14:28:26.009Z,3.93
2018-12-04T14:30:55.658Z,4.10
2018-12-04T14:33:25.165Z,3.87
2018-12-04T14:35:54.501Z,3.07
2018-12-04T14:38:24.599Z,3.60
2018-12-04T14:40:54.215Z,3.67
2018-12-04T14:43:24.058Z,2.97
2018-12-04T14:45:53.613Z,4.07
2018-12-04T14:48:23.447Z,5.20
2018-12-04T14:50:52.602Z,6.27
2018-12-04T14:53:22.015Z,4.20
2018-12-04T14:55:51.385Z,8.50
2018-12-04T14:58:20.711Z,3.47
2018-12-04T15:00:50.119Z,4.23
2018-12-04T15:03:19.413Z,3.90
2018-12-04T15:05:48.721Z,3.67
2018-12-04T15:08:17.869Z,4.17
2018-12-04T15:10:47.300Z,4.00
2018-12-04T15:13:16.840Z,3.40
2018-12-04T15:15:46.342Z,3.63
2018-12-04T15:18:15.641Z,4.53
2018-12-04T15:20:44.983Z,4.67
2018-12-04T15:23:14.323Z,7.00
2018-12-04T15:25:44.355Z,8.43
2018-12-04T15:28:13.991Z,6.90
2018-12-04T15:30:43.872Z,8.13
2018-12-04T15:33:13.230Z,7.97
2018-12-04T15:35:42.617Z,6.73
2018-12-04T15:38:12.172Z,7.00
2018-12-04T15:40:41.793Z,7.00
2018-12-04T15:43:10.773Z,7.10
2018-12-04T15:45:40.547Z,5.90
2018-12-04T15:48:09.963Z,6.77
2018-12-04T15:50:39.543Z,7.77
2018-12-04T15:53:09.162Z,7.67
2018-12-04T15:55:38.653Z,6.93
2018-12-04T15:58:07.937Z,7.33
2018-12-04T16:00:37.292Z,10.10
2018-12-04T16:03:06.532Z,12.50
2018-12-04T16:05:36.323Z,14.40
2018-12-04T16:08:05.890Z,12.73
2018-12-04T16:10:35.440Z,9.70
2018-12-04T16:13:04.899Z,11.60
2018-12-04T16:15:34.477Z,12.57
2018-12-04T16:18:04.013Z,12.20
2018-12-04T16:20:33.440Z,17.63
2018-12-04T16:23:02.663Z,16.23
2018-12-04T16:25:31.967Z,16.47
2018-12-04T16:28:01.290Z,18.53
2018-12-04T16:30:30.619Z,11.87
2018-12-04T16:33:00.101Z,12.63
2018-12-04T16:35:29.434Z,11.50
2018-12-04T16:37:58.707Z,10.70
2018-12-04T16:40:27.914Z,11.17
2018-12-04T16:42:57.457Z,11.20
2018-12-04T16:45:27.387Z,10.17
2018-12-04T16:47:57.089Z,13.60
2018-12-04T16:50:26.668Z,13.03
2018-12-04T16:52:55.919Z,19.73
2018-12-04T16:55:25.403Z,22.47
2018-12-04T16:57:55.020Z,9.90
2018-12-04T17:00:24.580Z,10.00
2018-12-04T17:02:53.674Z,9.10
2018-12-04T17:05:22.953Z,11.20
2018-12-04T17:07:52.377Z,13.07
2018-12-04T17:10:22.631Z,12.30
2018-12-04T17:12:52.324Z,13.57
2018-12-04T17:15:21.913Z,18.70
2018-12-04T17:17:53.029Z,18.90
2018-12-04T17:20:23.143Z,17.27
2018-12-04T17:22:54.915Z,16.97
2018-12-04T17:25:24.832Z,17.77
2018-12-04T17:27:54.860Z,18.83
2018-12-04T17:30:24.992Z,18.77
2018-12-04T17:32:55.481Z,20.80
2018-12-04T17:35:25.441Z,18.17
2018-12-04T17:37:55.175Z,19.90
2018-12-04T17:40:24.524Z,20.67
2018-12-04T17:42:54.427Z,15.67
2018-12-04T17:45:24.608Z,15.20
2018-12-04T17:47:54.727Z,21.47
2018-12-04T17:50:24.895Z,25.40
2018-12-04T17:52:54.658Z,21.97
2018-12-04T17:55:24.579Z,24.60
2018-12-04T17:57:54.776Z,23.90
2018-12-04T18:00:24.525Z,27.23
2018-12-04T18:02:54.870Z,19.00
2018-12-04T18:05:25.267Z,18.70
2018-12-04T18:07:55.106Z,32.33
2018-12-04T18:10:25.258Z,20.77
2018-12-04T18:12:55.120Z,20.33
2018-12-04T18:15:25.196Z,19.10
2018-12-04T18:17:55.455Z,18.23
2018-12-04T18:20:25.323Z,17.30
2018-12-04T18:22:55.457Z,18.87
2018-12-04T18:25:25.091Z,19.80
2018-12-04T18:27:55.221Z,20.57
2018-12-04T18:30:25.075Z,21.23
2018-12-04T18:32:55.091Z,19.77
2018-12-04T18:35:24.802Z,23.00
2018-12-04T18:37:54.814Z,22.33
2018-12-04T18:40:24.363Z,21.77
2018-12-04T18:42:54.404Z,21.60
2018-12-04T18:45:23.895Z,25.80
2018-12-04T18:47:54.157Z,41.37
2018-12-04T18:50:24.085Z,47.37
2018-12-04T18:52:54.384Z,40.40
2018-12-04T18:55:24.783Z,40.57
2018-12-04T18:57:54.803Z,34.63
2018-12-04T19:00:24.824Z,30.23
2018-12-04T19:02:57.239Z,32.83
2018-12-04T19:05:27.589Z,36.27
2018-12-04T19:07:57.467Z,27.17
2018-12-04T19:10:27.503Z,21.57
2018-12-04T19:12:57.502Z,18.90
2018-12-04T19:15:27.289Z,19.10
2018-12-04T19:17:57.159Z,20.90
2018-12-04T19:20:27.362Z,20.93
2018-12-04T19:22:57.763Z,18.33
2018-12-04T19:25:27.634Z,20.03
2018-12-04T19:27:57.579Z,21.30
2018-12-04T19:30:27.561Z,21.40
2018-12-04T19:32:57.731Z,22.17
2018-12-04T19:35:27.723Z,25.83
2018-12-04T19:37:57.454Z,28.73
2018-12-04T19:40:27.583Z,31.53
2018-12-04T19:42:57.419Z,33.30
2018-12-04T19:45:27.699Z,33.80
2018-12-04T19:47:58.508Z,29.50
2018-12-04T19:50:28.346Z,31.37
2018-12-04T19:52:58.775Z,29.33
2018-12-04T19:55:28.344Z,31.67
2018-12-04T19:57:59.173Z,28.87
2018-12-04T20:00:29.430Z,22.20
2018-12-04T20:02:59.386Z,28.43
2018-12-04T20:05:29.320Z,32.03
2018-12-04T20:08:00.939Z,31.20
2018-12-04T20:10:31.714Z,30.00
2018-12-04T20:13:02.168Z,27.53
2018-12-04T20:15:31.850Z,29.10
2018-12-04T20:18:01.812Z,33.70
2018-12-04T20:20:31.797Z,28.50
2018-12-04T20:23:02.033Z,36.67
2018-12-04T20:25:32.098Z,34.63
2018-12-04T20:28:02.143Z,32.90
2018-12-04T20:30:32.113Z,35.17
2018-12-04T20:33:02.163Z,33.73
2018-12-04T20:35:32.446Z,50.73
2018-12-04T20:38:02.862Z,34.07
2018-12-04T20:40:32.822Z,26.03
2018-12-04T20:43:02.889Z,27.63
2018-12-04T20:45:32.676Z,37.37
2018-12-04T20:48:02.623Z,34.30
2018-12-04T20:50:32.670Z,35.77
2018-12-04T20:53:02.575Z,37.70
2018-12-04T20:55:32.531Z,31.90
2018-12-04T20:58:02.652Z,36.27
2018-12-04T21:00:32.784Z,35.17
2018-12-04T21:03:02.963Z,31.53
2018-12-04T21:05:33.094Z,36.23
2018-12-04T21:08:03.155Z,30.03
2018-12-04T21:10:32.713Z,28.03
2018-12-04T21:13:02.039Z,25.43
2018-12-04T21:15:31.983Z,23.03
2018-12-04T21:18:01.445Z,21.10
2018-12-04T21:20:31.742Z,22.70
2018-12-04T21:23:01.475Z,25.40
2018-12-04T21:25:32.027Z,24.37
2018-12-04T21:28:06.969Z,25.27
2018-12-04T21:30:42.229Z,29.70
2018-12-04T21:33:17.684Z,30.13
2018-12-04T21:35:53.670Z,38.97
2018-12-04T21:38:28.663Z,47.77
2018-12-04T21:41:01.339Z,37.00
2018-12-04T21:43:36.818Z,33.50
2018-12-04T21:46:12.061Z,41.13
2018-12-04T21:48:42.146Z,45.17
2018-12-04T21:51:12.307Z,36.70
2018-12-04T21:53:42.439Z,36.53
2018-12-04T21:56:12.583Z,38.27
2018-12-04T21:58:42.512Z,32.97
2018-12-04T22:01:16.184Z,35.43
2018-12-04T22:03:45.799Z,33.77
2018-12-04T22:06:15.296Z,37.23
2018-12-04T22:08:45.743Z,34.30
2018-12-04T22:11:15.711Z,29.07
2018-12-04T22:13:45.914Z,26.33
2018-12-04T22:16:15.959Z,28.90
2018-12-04T22:18:46.284Z,27.23
2018-12-04T22:21:16.422Z,27.77
2018-12-04T22:23:46.658Z,26.00
2018-12-04T22:26:16.746Z,29.83
2018-12-04T22:28:46.774Z,28.30
2018-12-04T22:31:16.655Z,25.63
2018-12-04T22:33:46.462Z,24.50
2018-12-04T22:36:16.374Z,28.23
2018-12-04T22:38:46.458Z,30.83
2018-12-04T22:41:16.488Z,29.43
2018-12-04T22:43:46.384Z,30.13
2018-12-04T22:46:15.882Z,30.30
2018-12-04T22:48:45.578Z,49.53
2018-12-04T22:51:15.622Z,41.33
2018-12-04T22:53:45.444Z,28.07
2018-12-04T22:56:15.727Z,32.53
2018-12-04T22:58:45.776Z,32.57
2018-12-04T23:01:21.953Z,30.57
2018-12-04T23:03:52.901Z,28.07
2018-12-04T23:06:22.709Z,30.43
2018-12-04T23:08:54.575Z,29.73
2018-12-04T23:11:24.524Z,28.27
2018-12-04T23:13:54.529Z,27.03
2018-12-04T23:16:24.437Z,27.20
2018-12-04T23:18:54.700Z,26.83
2018-12-04T23:21:24.412Z,26.50
2018-12-04T23:23:54.329Z,22.33
2018-12-04T23:26:24.640Z,22.53
2018-12-04T23:28:54.464Z,21.27
2018-12-04T23:31:24.493Z,23.40
2018-12-04T23:33:54.815Z,21.87
2018-12-04T23:36:25.115Z,20.83
2018-12-04T23:38:55.225Z,25.83
2018-12-04T23:41:24.985Z,20.67
2018-12-04T23:43:54.977Z,23.10
2018-12-04T23:46:24.971Z,24.90
2018-12-04T23:48:55.153Z,22.40
2018-12-04T23:51:25.069Z,28.37
2018-12-04T23:53:54.778Z,29.17
2018-12-04T23:56:24.392Z,27.83
2018-12-04T23:58:54.361Z,26.33
